Airport View

Enter AWOS ICAO identifier for current METAR.

ex. KFNL

KTNU 170955Z AUTO 13004KT 5SM BR BKN120 01/01 A2995 RMK A01

17 Nov 2019 10:13

Frequency: 132.275

Phone: 641-791-3302

Other Area AWOS: KGGI - KPEA - KOXV - KIKV

TAF KDSM 170531Z 1706/1806 14009KT P6SM BKN140 OVC250 FM170900 20006KT P6SM VCSH OVC100 FM171300 30009G15KT P6SM OVC022 FM171800 33010KT P6SM BKN025 FM180300 30004KT P6SM BKN035